createdAt,value
2023-02-04T00:01:48.696Z,89.89
2023-02-04T00:04:15.535Z,91.23
2023-02-04T00:06:42.156Z,92.51
2023-02-04T00:09:08.712Z,92.33
2023-02-04T00:11:35.184Z,92.57
2023-02-04T00:14:01.550Z,92.52
2023-02-04T00:16:28.036Z,92.77
2023-02-04T00:18:54.753Z,92.37
2023-02-04T00:21:21.487Z,92.58
2023-02-04T00:23:48.630Z,91.90
2023-02-04T00:26:15.057Z,92.03
2023-02-04T00:28:41.962Z,91.25
2023-02-04T00:31:08.541Z,89.55
2023-02-04T00:33:35.030Z,88.54
2023-02-04T00:36:01.969Z,87.42
2023-02-04T00:38:28.544Z,85.55
2023-02-04T00:40:55.196Z,87.47
2023-02-04T00:43:21.581Z,88.07
2023-02-04T00:45:48.029Z,88.92
2023-02-04T00:48:14.878Z,87.97
2023-02-04T00:50:41.387Z,89.18
2023-02-04T00:53:08.043Z,89.50
2023-02-04T00:55:34.860Z,89.58
2023-02-04T00:58:01.333Z,89.44
2023-02-04T01:00:27.966Z,89.60
2023-02-04T01:02:54.667Z,90.03
2023-02-04T01:05:21.259Z,89.44
2023-02-04T01:07:48.120Z,90.84
2023-02-04T01:10:16.123Z,89.85
2023-02-04T01:12:42.792Z,89.81
2023-02-04T01:15:10.227Z,89.89
2023-02-04T01:17:37.280Z,90.58
2023-02-04T01:20:03.930Z,89.67
2023-02-04T01:22:31.496Z,89.50
2023-02-04T01:24:57.954Z,89.25
2023-02-04T01:27:24.382Z,89.88
2023-02-04T01:29:50.785Z,89.55
2023-02-04T01:32:17.246Z,89.70
2023-02-04T01:34:43.690Z,89.55
2023-02-04T01:37:10.131Z,90.95
2023-02-04T01:39:37.007Z,90.34
2023-02-04T01:42:03.925Z,91.70
2023-02-04T01:44:31.120Z,91.33
2023-02-04T01:46:57.747Z,91.17
2023-02-04T01:49:24.684Z,89.42
2023-02-04T01:51:51.155Z,89.42
2023-02-04T01:54:18.064Z,89.02
2023-02-04T01:56:47.255Z,89.89
2023-02-04T01:59:15.266Z,90.24
2023-02-04T02:01:47.201Z,91.47
2023-02-04T02:04:17.264Z,91.29
2023-02-04T02:06:49.726Z,91.16
2023-02-04T02:09:16.423Z,90.53
2023-02-04T02:11:43.327Z,90.15
2023-02-04T02:14:10.425Z,87.75
2023-02-04T02:16:37.487Z,86.36
2023-02-04T02:19:04.432Z,85.97
2023-02-04T02:21:41.030Z,87.56
2023-02-04T02:24:30.941Z,86.63
2023-02-04T02:27:00.538Z,87.73
2023-02-04T02:29:27.681Z,89.26
2023-02-04T02:31:57.435Z,88.98
2023-02-04T02:34:25.655Z,88.03
2023-02-04T02:36:52.868Z,87.82
2023-02-04T02:39:20.600Z,86.47
2023-02-04T02:41:48.016Z,86.28
2023-02-04T02:44:16.558Z,86.72
2023-02-04T02:46:43.353Z,87.04
2023-02-04T02:49:15.956Z,87.84
2023-02-04T02:51:42.964Z,89.29
2023-02-04T02:54:29.226Z,89.17
2023-02-04T02:56:56.645Z,89.35
2023-02-04T02:59:23.819Z,89.73
2023-02-04T03:01:54.152Z,88.17
2023-02-04T03:04:22.017Z,87.73
2023-02-04T03:06:49.498Z,88.09
2023-02-04T03:09:16.090Z,88.71
2023-02-04T03:11:42.580Z,87.48
2023-02-04T03:14:09.527Z,87.76
2023-02-04T03:16:37.968Z,88.00
2023-02-04T03:19:05.826Z,88.01
2023-02-04T03:21:32.825Z,88.86
2023-02-04T03:23:59.708Z,89.71
2023-02-04T03:26:26.699Z,88.61
2023-02-04T03:28:54.481Z,90.62
2023-02-04T03:31:21.259Z,90.71
2023-02-04T03:33:48.328Z,90.99
2023-02-04T03:36:14.866Z,90.39
2023-02-04T03:38:41.435Z,90.48
2023-02-04T03:41:08.166Z,90.35
2023-02-04T03:43:34.754Z,90.90
2023-02-04T03:46:01.373Z,91.39
2023-02-04T03:48:28.068Z,91.19
2023-02-04T03:50:54.544Z,90.98
2023-02-04T03:53:22.116Z,90.63
2023-02-04T03:55:48.637Z,90.70
2023-02-04T03:58:15.244Z,91.12
2023-02-04T04:00:41.868Z,91.42
2023-02-04T04:03:08.418Z,91.41
2023-02-04T04:05:35.024Z,90.58
2023-02-04T04:08:01.739Z,91.68
2023-02-04T04:10:29.488Z,91.39
2023-02-04T04:12:56.276Z,92.06
2023-02-04T04:15:22.966Z,91.59
2023-02-04T04:17:49.540Z,88.74
2023-02-04T04:20:16.296Z,88.47
2023-02-04T04:22:42.714Z,88.59
2023-02-04T04:25:09.404Z,88.63
2023-02-04T04:27:35.797Z,88.37
2023-02-04T04:30:03.076Z,87.84
2023-02-04T04:32:29.576Z,87.05
2023-02-04T04:34:56.159Z,88.06
2023-02-04T04:37:22.658Z,87.12
2023-02-04T04:39:49.069Z,88.15
2023-02-04T04:42:15.533Z,88.63
2023-02-04T04:44:41.946Z,89.07
2023-02-04T04:47:08.442Z,90.31
2023-02-04T04:49:34.890Z,91.59
2023-02-04T04:52:01.376Z,91.82
2023-02-04T04:54:27.924Z,91.93
2023-02-04T04:56:54.620Z,92.50
2023-02-04T04:59:21.057Z,91.62
2023-02-04T05:01:48.060Z,91.43
2023-02-04T05:04:14.627Z,91.02
2023-02-04T05:06:41.127Z,90.20
2023-02-04T05:09:09.630Z,89.55
2023-02-04T05:11:36.171Z,89.47
2023-02-04T05:14:02.627Z,89.61
2023-02-04T05:16:29.256Z,89.74
2023-02-04T05:18:55.706Z,90.29
2023-02-04T05:21:22.175Z,89.75
2023-02-04T05:23:48.589Z,88.90
2023-02-04T05:26:22.184Z,88.14
2023-02-04T05:28:55.914Z,88.71
2023-02-04T05:31:22.483Z,88.39
2023-02-04T05:33:49.058Z,88.65
2023-02-04T05:36:15.477Z,89.40
2023-02-04T05:38:41.871Z,89.82
2023-02-04T05:41:08.292Z,88.48
2023-02-04T05:43:35.255Z,89.97
2023-02-04T05:46:02.565Z,89.90
2023-02-04T05:48:29.083Z,89.00
2023-02-04T05:50:55.534Z,88.30
2023-02-04T05:53:22.068Z,88.03
2023-02-04T05:55:48.520Z,88.67
2023-02-04T05:58:14.950Z,88.66
2023-02-04T06:00:41.404Z,88.68
2023-02-04T06:03:07.951Z,88.64
2023-02-04T06:05:34.424Z,88.24
2023-02-04T06:08:00.928Z,88.09
2023-02-04T06:10:27.411Z,87.96
2023-02-04T06:12:54.184Z,88.63
2023-02-04T06:15:20.804Z,88.68
2023-02-04T06:17:47.658Z,88.38
2023-02-04T06:20:15.120Z,88.14
2023-02-04T06:22:41.509Z,88.29
2023-02-04T06:25:08.290Z,88.33
2023-02-04T06:27:35.051Z,88.87
2023-02-04T06:30:01.534Z,89.21
2023-02-04T06:32:27.960Z,90.17
2023-02-04T06:34:54.370Z,89.76
2023-02-04T06:37:21.463Z,89.89
2023-02-04T06:39:48.943Z,89.44
2023-02-04T06:42:15.433Z,89.57
2023-02-04T06:44:41.888Z,89.01
2023-02-04T06:47:08.472Z,89.46
2023-02-04T06:49:34.906Z,88.63
2023-02-04T06:52:01.349Z,89.69
2023-02-04T06:54:28.278Z,89.15
2023-02-04T06:56:54.844Z,89.20
2023-02-04T06:59:21.248Z,90.16
2023-02-04T07:01:47.742Z,89.55
2023-02-04T07:04:14.303Z,88.93
2023-02-04T07:06:40.778Z,89.47
2023-02-04T07:09:07.245Z,87.44
2023-02-04T07:11:33.816Z,86.14
2023-02-04T07:14:00.606Z,85.57
2023-02-04T07:16:27.142Z,83.71
2023-02-04T07:18:53.621Z,80.59
2023-02-04T07:21:20.139Z,79.35
2023-02-04T07:23:46.573Z,75.99
2023-02-04T07:26:13.005Z,76.44
2023-02-04T07:28:41.166Z,75.31
2023-02-04T07:31:07.816Z,73.72
2023-02-04T07:33:34.272Z,74.24
2023-02-04T07:36:00.726Z,73.80
2023-02-04T07:38:27.668Z,74.34
2023-02-04T07:40:54.252Z,72.03
2023-02-04T07:43:20.757Z,70.92
2023-02-04T07:45:47.422Z,69.74
2023-02-04T07:48:14.076Z,65.15
2023-02-04T07:50:40.748Z,64.20
2023-02-04T07:53:07.411Z,65.85
2023-02-04T07:55:34.296Z,61.14
2023-02-04T07:58:00.827Z,57.84
2023-02-04T08:00:27.354Z,55.21
2023-02-04T08:02:54.053Z,56.03
2023-02-04T08:05:20.952Z,58.25
2023-02-04T08:07:47.614Z,62.41
2023-02-04T08:10:14.193Z,64.40
2023-02-04T08:12:41.333Z,65.69
2023-02-04T08:15:08.929Z,69.24
2023-02-04T08:17:35.931Z,69.64
2023-02-04T08:20:03.221Z,70.54
2023-02-04T08:22:29.885Z,72.87
2023-02-04T08:24:56.584Z,73.73
2023-02-04T08:27:23.347Z,73.87
2023-02-04T08:29:49.928Z,72.00
2023-02-04T08:32:16.661Z,69.94
2023-02-04T08:34:44.116Z,69.97
2023-02-04T08:37:10.803Z,70.00
2023-02-04T08:39:38.429Z,71.61
2023-02-04T08:42:04.903Z,72.59
2023-02-04T08:44:31.359Z,74.39
2023-02-04T08:46:57.993Z,74.17
2023-02-04T08:49:24.560Z,74.75
2023-02-04T08:51:50.997Z,75.21
2023-02-04T08:54:17.442Z,73.91
2023-02-04T08:56:44.213Z,73.67
2023-02-04T08:59:10.659Z,74.15
2023-02-04T09:01:37.137Z,73.81
2023-02-04T09:04:03.658Z,73.65
2023-02-04T09:06:30.166Z,73.65
2023-02-04T09:08:56.802Z,72.55
2023-02-04T09:11:23.400Z,70.95
2023-02-04T09:13:50.430Z,71.00
2023-02-04T09:16:18.537Z,70.49
2023-02-04T09:18:45.160Z,70.06
2023-02-04T09:21:11.573Z,68.53
2023-02-04T09:23:38.047Z,68.56
2023-02-04T09:26:06.322Z,68.54
2023-02-04T09:28:33.118Z,70.65
2023-02-04T09:31:00.601Z,67.94
2023-02-04T09:33:27.411Z,68.64
2023-02-04T09:35:53.921Z,66.58
2023-02-04T09:38:22.167Z,69.84
2023-02-04T09:40:54.819Z,69.96
2023-02-04T09:43:26.277Z,68.83
2023-02-04T09:45:53.897Z,68.54
2023-02-04T09:48:21.739Z,68.66
2023-02-04T09:50:49.157Z,69.52
2023-02-04T09:53:18.463Z,67.40
2023-02-04T09:55:45.763Z,66.50
2023-02-04T09:58:21.612Z,67.60
2023-02-04T10:00:52.931Z,66.58
2023-02-04T10:03:22.225Z,65.40
2023-02-04T10:05:49.927Z,65.71
2023-02-04T10:08:18.886Z,63.85
2023-02-04T10:10:47.833Z,64.83
2023-02-04T10:13:19.994Z,65.92
2023-02-04T10:15:47.939Z,65.59
2023-02-04T10:18:27.546Z,64.89
2023-02-04T10:21:16.823Z,65.21
2023-02-04T10:23:45.526Z,65.28
2023-02-04T10:26:12.668Z,66.47
2023-02-04T10:28:42.470Z,65.94
2023-02-04T10:31:30.769Z,67.19
2023-02-04T10:34:04.427Z,66.89
2023-02-04T10:36:30.983Z,67.29
2023-02-04T10:39:16.991Z,66.11
2023-02-04T10:42:01.641Z,67.31
2023-02-04T10:44:30.239Z,67.36
2023-02-04T10:46:59.836Z,66.08
2023-02-04T10:49:26.349Z,67.54
2023-02-04T10:51:53.435Z,66.38
2023-02-04T10:54:30.639Z,67.25
2023-02-04T10:57:11.608Z,64.86
2023-02-04T10:59:38.168Z,62.45
2023-02-04T11:02:21.515Z,58.99
2023-02-04T11:04:48.453Z,59.72
2023-02-04T11:07:14.888Z,58.19
2023-02-04T11:09:42.025Z,57.05
2023-02-04T11:12:20.728Z,60.15
2023-02-04T11:14:57.493Z,61.67
2023-02-04T11:17:31.500Z,56.61
2023-02-04T11:19:58.115Z,54.48
2023-02-04T11:22:37.341Z,55.03
2023-02-04T11:25:03.892Z,54.33
2023-02-04T11:27:40.361Z,48.97
2023-02-04T11:30:20.529Z,46.23
2023-02-04T11:32:56.923Z,49.58
2023-02-04T11:35:26.752Z,48.54
2023-02-04T11:37:54.617Z,48.78
2023-02-04T11:40:23.782Z,49.52
2023-02-04T11:42:50.320Z,48.61
2023-02-04T11:45:32.766Z,50.86
2023-02-04T11:48:02.163Z,54.37
2023-02-04T11:50:31.967Z,56.14
2023-02-04T11:52:59.764Z,56.82
2023-02-04T11:55:26.428Z,55.72
2023-02-04T11:57:55.076Z,51.28
2023-02-04T12:00:24.646Z,50.25
2023-02-04T12:02:56.854Z,48.79
2023-02-04T12:05:35.868Z,47.04
2023-02-04T12:08:11.941Z,52.03
2023-02-04T12:10:38.531Z,53.26
2023-02-04T12:13:13.366Z,55.67
2023-02-04T12:15:40.547Z,54.15
2023-02-04T12:18:16.613Z,53.84
2023-02-04T12:20:43.033Z,54.15
2023-02-04T12:23:09.521Z,56.28
2023-02-04T12:25:36.812Z,58.73
2023-02-04T12:28:03.419Z,60.43
2023-02-04T12:30:29.839Z,62.08
2023-02-04T12:32:56.276Z,61.38
2023-02-04T12:35:22.718Z,58.04
2023-02-04T12:37:49.266Z,56.97
2023-02-04T12:40:17.472Z,54.01
2023-02-04T12:42:44.253Z,53.21
2023-02-04T12:45:11.678Z,51.92
2023-02-04T12:47:38.575Z,48.28
2023-02-04T12:50:06.313Z,47.75
2023-02-04T12:52:32.810Z,46.42
2023-02-04T12:55:04.869Z,46.37
2023-02-04T12:57:32.244Z,46.87
2023-02-04T13:00:00.325Z,46.37
2023-02-04T13:02:30.325Z,46.91
2023-02-04T13:04:56.975Z,48.95
2023-02-04T13:07:23.420Z,51.32
2023-02-04T13:09:50.511Z,49.17
2023-02-04T13:12:16.999Z,45.42
2023-02-04T13:14:43.832Z,43.31
2023-02-04T13:17:10.507Z,41.65
2023-02-04T13:19:37.262Z,43.70
2023-02-04T13:22:06.751Z,43.09
2023-02-04T13:24:33.729Z,43.27
2023-02-04T13:27:00.203Z,43.32
2023-02-04T13:29:27.105Z,44.14
2023-02-04T13:31:53.595Z,43.95
2023-02-04T13:34:20.121Z,45.03
2023-02-04T13:36:46.672Z,46.41
2023-02-04T13:39:13.130Z,45.85
2023-02-04T13:41:39.525Z,43.55
2023-02-04T13:44:05.918Z,43.16
2023-02-04T13:46:32.392Z,42.00
2023-02-04T13:48:58.936Z,43.46
2023-02-04T13:51:25.442Z,43.44
2023-02-04T13:53:52.022Z,43.29
2023-02-04T13:56:18.468Z,45.18
2023-02-04T13:58:45.541Z,45.88
2023-02-04T14:01:13.146Z,46.78
2023-02-04T14:03:40.097Z,46.09
2023-02-04T14:06:06.764Z,44.63
2023-02-04T14:08:33.219Z,44.63
2023-02-04T14:10:59.620Z,46.13
2023-02-04T14:13:26.356Z,44.55
2023-02-04T14:15:53.118Z,44.34
2023-02-04T14:18:19.644Z,44.54
2023-02-04T14:20:46.219Z,44.03
2023-02-04T14:23:12.921Z,45.27
2023-02-04T14:25:39.416Z,45.49
2023-02-04T14:28:06.093Z,46.93
2023-02-04T14:30:33.212Z,47.60
2023-02-04T14:33:01.425Z,50.16
2023-02-04T14:35:28.066Z,50.47
2023-02-04T14:37:54.664Z,51.21
2023-02-04T14:40:22.356Z,50.90
2023-02-04T14:42:48.925Z,51.14
2023-02-04T14:45:15.943Z,50.75
2023-02-04T14:47:42.648Z,50.67
2023-02-04T14:50:12.497Z,49.28
2023-02-04T14:52:39.013Z,50.27
2023-02-04T14:55:05.713Z,49.71
2023-02-04T14:57:32.133Z,50.63
2023-02-04T14:59:58.575Z,51.24
2023-02-04T15:02:25.740Z,50.06
2023-02-04T15:04:52.408Z,50.24
2023-02-04T15:07:18.856Z,50.38
2023-02-04T15:09:45.306Z,52.99
2023-02-04T15:12:11.772Z,52.63
2023-02-04T15:14:38.117Z,51.73
2023-02-04T15:17:04.645Z,52.04
2023-02-04T15:19:31.094Z,52.22
2023-02-04T15:21:57.512Z,53.72
2023-02-04T15:24:26.178Z,54.08
2023-02-04T15:26:52.541Z,54.34
2023-02-04T15:29:19.177Z,55.65
2023-02-04T15:31:45.738Z,56.38
2023-02-04T15:34:12.276Z,55.82
2023-02-04T15:36:38.738Z,57.65
2023-02-04T15:39:05.340Z,57.32
2023-02-04T15:41:31.783Z,58.74
2023-02-04T15:43:58.166Z,58.00
2023-02-04T15:46:24.625Z,58.24
2023-02-04T15:48:51.277Z,58.84
2023-02-04T15:51:17.709Z,59.57
2023-02-04T15:53:44.335Z,59.76
2023-02-04T15:56:10.851Z,59.83
2023-02-04T15:58:38.019Z,59.82
2023-02-04T16:01:04.618Z,60.52
2023-02-04T16:03:31.223Z,61.53
2023-02-04T16:05:57.685Z,62.63
2023-02-04T16:08:24.259Z,63.09
2023-02-04T16:10:51.245Z,62.37
2023-02-04T16:13:17.617Z,63.49
2023-02-04T16:15:44.090Z,63.91
2023-02-04T16:18:10.532Z,64.30
2023-02-04T16:20:36.950Z,63.97
2023-02-04T16:23:04.235Z,64.03
2023-02-04T16:25:31.060Z,65.01
2023-02-04T16:27:57.580Z,64.18
2023-02-04T16:30:23.998Z,64.31
2023-02-04T16:32:50.394Z,64.78
2023-02-04T16:35:16.980Z,65.26
2023-02-04T16:37:43.422Z,64.76
2023-02-04T16:40:11.196Z,67.20
2023-02-04T16:42:37.697Z,65.90
2023-02-04T16:45:04.433Z,66.35
2023-02-04T16:47:30.869Z,66.42
2023-02-04T16:50:00.855Z,66.06
2023-02-04T16:52:28.504Z,66.60
2023-02-04T16:54:55.171Z,66.40
2023-02-04T16:57:21.784Z,66.73
2023-02-04T16:59:48.211Z,66.54
2023-02-04T17:02:14.640Z,67.56
2023-02-04T17:04:41.580Z,67.47
2023-02-04T17:07:08.087Z,67.81
2023-02-04T17:09:34.589Z,68.68
2023-02-04T17:12:01.041Z,68.42
2023-02-04T17:14:27.463Z,68.35
2023-02-04T17:16:53.922Z,69.82
2023-02-04T17:19:21.321Z,69.38
2023-02-04T17:21:48.746Z,69.75
2023-02-04T17:24:15.325Z,69.11
2023-02-04T17:26:41.739Z,69.64
2023-02-04T17:29:10.620Z,69.73
2023-02-04T17:31:37.653Z,69.47
2023-02-04T17:34:04.706Z,70.18
2023-02-04T17:36:31.551Z,70.81
2023-02-04T17:38:58.093Z,70.06
2023-02-04T17:41:24.490Z,71.86
2023-02-04T17:43:50.958Z,71.10
2023-02-04T17:46:17.382Z,70.88
2023-02-04T17:48:43.825Z,71.19
2023-02-04T17:51:10.346Z,70.53
2023-02-04T17:53:38.742Z,70.56
2023-02-04T17:56:09.942Z,71.31
2023-02-04T17:58:37.664Z,70.29
2023-02-04T18:01:13.901Z,70.48
2023-02-04T18:03:42.721Z,70.09
2023-02-04T18:06:19.905Z,70.85
2023-02-04T18:08:46.862Z,70.72
2023-02-04T18:11:18.774Z,71.55
2023-02-04T18:13:45.440Z,70.38
2023-02-04T18:16:32.133Z,70.91
2023-02-04T18:19:21.337Z,71.85
2023-02-04T18:21:49.227Z,71.71
2023-02-04T18:24:30.230Z,71.71
2023-02-04T18:27:09.242Z,72.50
2023-02-04T18:29:37.903Z,72.43
2023-02-04T18:32:20.616Z,73.17
2023-02-04T18:34:49.006Z,72.74
2023-02-04T18:37:48.575Z,73.43
2023-02-04T18:40:26.604Z,72.64
2023-02-04T18:43:25.254Z,73.38
2023-02-04T18:45:52.621Z,73.17
2023-02-04T18:48:19.042Z,72.84
2023-02-04T18:50:46.676Z,73.04
2023-02-04T18:53:13.512Z,73.38
2023-02-04T18:55:42.224Z,73.23
2023-02-04T18:58:46.347Z,73.38
2023-02-04T19:01:12.944Z,73.88
2023-02-04T19:03:55.649Z,73.83
2023-02-04T19:06:40.189Z,74.23
2023-02-04T19:09:13.325Z,74.28
2023-02-04T19:11:45.095Z,74.47
2023-02-04T19:14:33.045Z,75.56
2023-02-04T19:17:26.705Z,75.79
2023-02-04T19:20:02.078Z,74.97
2023-02-04T19:22:46.127Z,75.55
2023-02-04T19:25:28.447Z,75.17
2023-02-04T19:27:57.354Z,74.71
2023-02-04T19:30:26.678Z,75.19
2023-02-04T19:32:56.936Z,74.58
2023-02-04T19:35:26.420Z,74.63
2023-02-04T19:37:58.032Z,74.37
2023-02-04T19:40:37.367Z,74.39
2023-02-04T19:43:27.057Z,73.93
2023-02-04T19:45:53.839Z,73.19
2023-02-04T19:48:25.628Z,73.09
2023-02-04T19:50:53.063Z,73.11
2023-02-04T19:53:27.653Z,72.52
2023-02-04T19:55:54.548Z,72.77
2023-02-04T19:58:28.858Z,72.38
2023-02-04T20:01:08.210Z,72.42
2023-02-04T20:03:45.548Z,72.36
2023-02-04T20:06:27.436Z,73.21
2023-02-04T20:09:20.265Z,73.17
2023-02-04T20:11:59.800Z,73.99
2023-02-04T20:14:41.057Z,74.49
2023-02-04T20:17:15.224Z,74.37
2023-02-04T20:19:42.489Z,74.65
2023-02-04T20:22:17.782Z,74.34
2023-02-04T20:24:55.818Z,74.93
2023-02-04T20:27:35.798Z,74.46
2023-02-04T20:30:08.966Z,75.82
2023-02-04T20:32:41.367Z,76.57
2023-02-04T20:35:14.129Z,76.50
2023-02-04T20:37:41.854Z,77.01
2023-02-04T20:40:20.318Z,76.64
2023-02-04T20:42:50.071Z,77.02
2023-02-04T20:45:25.526Z,76.98
2023-02-04T20:47:56.495Z,77.36
2023-02-04T20:50:41.150Z,77.53
2023-02-04T20:53:17.240Z,76.63
2023-02-04T20:56:03.710Z,76.38
2023-02-04T20:58:36.777Z,76.98
2023-02-04T21:01:03.534Z,76.34
2023-02-04T21:03:35.747Z,76.04
2023-02-04T21:06:04.386Z,76.10
2023-02-04T21:08:38.234Z,75.84
2023-02-04T21:11:05.064Z,74.75
2023-02-04T21:13:32.062Z,74.47
2023-02-04T21:15:58.864Z,73.75
2023-02-04T21:18:25.549Z,73.84
2023-02-04T21:20:52.709Z,74.11
2023-02-04T21:23:19.887Z,73.59
2023-02-04T21:25:46.346Z,73.69
2023-02-04T21:28:13.092Z,73.93
2023-02-04T21:30:39.599Z,73.25
2023-02-04T21:33:06.003Z,74.18
2023-02-04T21:35:32.725Z,73.49
2023-02-04T21:37:59.830Z,73.75
2023-02-04T21:40:26.688Z,73.51
2023-02-04T21:42:53.567Z,73.64
2023-02-04T21:45:21.785Z,73.25
2023-02-04T21:47:49.353Z,73.77
2023-02-04T21:50:17.196Z,73.24
2023-02-04T21:52:43.997Z,74.37
2023-02-04T21:55:11.338Z,74.47
2023-02-04T21:57:38.102Z,74.92
2023-02-04T22:00:06.713Z,74.74
2023-02-04T22:02:33.327Z,75.38
2023-02-04T22:04:59.828Z,74.23
2023-02-04T22:07:26.409Z,74.61
2023-02-04T22:09:52.822Z,74.37
2023-02-04T22:12:19.738Z,75.07
2023-02-04T22:14:46.150Z,75.39
2023-02-04T22:17:12.510Z,73.18
2023-02-04T22:19:38.927Z,74.75
2023-02-04T22:22:05.293Z,74.78
2023-02-04T22:24:32.077Z,74.19
2023-02-04T22:26:59.324Z,75.18
2023-02-04T22:29:29.845Z,73.95
2023-02-04T22:31:56.423Z,74.13
2023-02-04T22:34:22.929Z,74.38
2023-02-04T22:36:49.514Z,75.21
2023-02-04T22:39:15.861Z,75.07
2023-02-04T22:41:42.259Z,75.30
2023-02-04T22:44:08.780Z,75.42
2023-02-04T22:46:35.304Z,76.29
2023-02-04T22:49:01.934Z,76.04
2023-02-04T22:51:28.581Z,75.70
2023-02-04T22:53:55.074Z,77.03
2023-02-04T22:56:21.541Z,77.09
2023-02-04T22:58:47.969Z,77.56
2023-02-04T23:01:14.621Z,77.13
2023-02-04T23:03:41.124Z,77.42
2023-02-04T23:06:07.847Z,77.38
2023-02-04T23:08:34.482Z,77.64
2023-02-04T23:11:01.416Z,76.17
2023-02-04T23:13:28.062Z,77.42
2023-02-04T23:15:54.878Z,76.81
2023-02-04T23:18:21.458Z,76.82
2023-02-04T23:20:48.012Z,77.13
2023-02-04T23:23:17.473Z,77.45
2023-02-04T23:25:45.560Z,77.34
2023-02-04T23:28:12.591Z,77.70
2023-02-04T23:30:39.869Z,78.70
2023-02-04T23:33:06.457Z,78.71
2023-02-04T23:35:33.521Z,78.12
2023-02-04T23:38:01.784Z,77.77
2023-02-04T23:40:28.977Z,77.49
2023-02-04T23:42:55.399Z,76.98
2023-02-04T23:45:22.188Z,76.76
2023-02-04T23:47:48.715Z,77.02
2023-02-04T23:50:16.022Z,77.52
2023-02-04T23:52:43.000Z,76.93
2023-02-04T23:55:09.964Z,76.68
2023-02-04T23:57:36.386Z,76.89
